Time;durP1;ratioP1;P1;durP2;ratioP2;P2;SDS_P1;SDS_P2;PMS_P1;PMS_P2;Temp;Humidity;BMP_temperature;BMP_pressure;BME280_temperature;BME280_humidity;BME280_pressure;Samples;Min_cycle;Max_cycle;Signal;HPM_P1;HPM_P2
2022/06/27 00:00:07;;;;;;;5.30;3.97;;;;;;;22.12;60.46;100870.77;1713264;82;21247;-73
2022/06/27 00:02:40;;;;;;;6.20;3.97;;;;;;;22.05;60.57;100873.20;1695567;82;21087;-73
2022/06/27 00:05:08;;;;;;;6.63;4.10;;;;;;;21.98;60.67;100873.70;1694961;82;21079;-72
2022/06/27 00:07:34;;;;;;;5.20;4.07;;;;;;;21.95;60.86;100873.00;1686013;82;21645;-72
2022/06/27 00:10:00;;;;;;;6.70;4.47;;;;;;;21.91;60.96;100878.03;1704317;82;21683;-73
2022/06/27 00:12:27;;;;;;;5.97;3.90;;;;;;;21.87;61.06;100881.17;1683634;82;21255;-74
2022/06/27 00:14:55;;;;;;;5.83;3.93;;;;;;;21.84;61.19;100879.11;1698512;82;21046;-73
2022/06/27 00:17:21;;;;;;;4.90;4.30;;;;;;;21.78;61.29;100879.30;1685534;82;21090;-74
2022/06/27 00:19:48;;;;;;;4.60;3.77;;;;;;;21.77;61.40;100873.60;1680525;82;21006;-74
2022/06/27 00:22:15;;;;;;;5.70;4.23;;;;;;;21.76;61.41;100875.30;1689776;82;21113;-74
2022/06/27 00:24:42;;;;;;;7.00;4.17;;;;;;;21.74;61.37;100879.69;1657098;84;21658;-74
2022/06/27 00:27:08;;;;;;;5.67;4.20;;;;;;;21.72;61.47;100877.87;1715603;82;21080;-73
2022/06/27 00:29:35;;;;;;;4.87;3.70;;;;;;;21.71;61.41;100878.17;1705800;82;21118;-73
2022/06/27 00:32:02;;;;;;;5.50;4.13;;;;;;;21.71;61.43;100878.97;1700270;82;21081;-73
2022/06/27 00:34:30;;;;;;;6.20;3.73;;;;;;;21.71;61.54;100879.53;1686084;82;21167;-73
2022/06/27 00:36:57;;;;;;;4.93;3.70;;;;;;;21.70;61.55;100878.75;1690139;82;21676;-74
2022/06/27 00:39:23;;;;;;;5.13;3.90;;;;;;;21.71;61.64;100872.74;1687811;82;21133;-73
2022/06/27 00:41:51;;;;;;;5.47;4.13;;;;;;;21.71;62.01;100878.17;1690293;82;21250;-73
2022/06/27 00:44:39;;;;;;;5.90;4.23;;;;;;;21.69;62.45;100878.52;1679679;82;21086;-73
2022/06/27 00:47:08;;;;;;;5.27;3.93;;;;;;;21.67;62.59;100883.47;1686021;82;21039;-73
2022/06/27 00:49:36;;;;;;;6.27;4.40;;;;;;;21.64;63.58;100884.11;1683997;82;21227;-73
2022/06/27 00:52:04;;;;;;;5.73;4.27;;;;;;;21.60;64.08;100879.66;1689130;82;20942;-74
2022/06/27 00:54:35;;;;;;;7.00;4.60;;;;;;;21.53;64.75;100885.59;1680635;82;21097;-73
2022/06/27 00:57:01;;;;;;;6.77;4.67;;;;;;;21.45;65.19;100878.23;1685798;82;21098;-73
2022/06/27 00:59:28;;;;;;;5.57;3.80;;;;;;;21.42;65.45;100874.80;1687482;82;21074;-72
2022/06/27 01:01:56;;;;;;;4.57;4.00;;;;;;;21.39;65.50;100884.41;1712282;82;21621;-72
2022/06/27 01:04:24;;;;;;;7.53;4.50;;;;;;;21.36;65.48;100884.27;1682498;82;21157;-73
2022/06/27 01:06:52;;;;;;;6.07;4.10;;;;;;;21.31;65.48;100889.25;1695111;82;20975;-73
2022/06/27 01:09:26;;;;;;;6.10;4.60;;;;;;;21.27;65.56;100891.81;1691923;82;21062;-73
2022/06/27 01:11:53;;;;;;;5.67;4.27;;;;;;;21.29;65.52;100892.30;1694229;82;21080;-73
2022/06/27 01:14:28;;;;;;;6.57;4.40;;;;;;;21.28;65.43;100883.10;1721251;82;21114;-73
2022/06/27 01:17:04;;;;;;;5.40;4.40;;;;;;;21.26;65.45;100894.30;1714900;82;21084;-72
2022/06/27 01:19:33;;;;;;;5.60;4.37;;;;;;;21.26;65.51;100897.59;1685093;82;21586;-74
2022/06/27 01:22:07;;;;;;;6.43;4.30;;;;;;;21.23;65.54;100894.14;1706120;82;21007;-73
2022/06/27 01:24:36;;;;;;;5.70;4.13;;;;;;;21.19;65.57;100896.70;1689150;82;21080;-74
2022/06/27 01:27:05;;;;;;;5.83;4.33;;;;;;;21.16;65.47;100891.91;1720420;82;21246;-73
2022/06/27 01:29:32;;;;;;;5.37;4.40;;;;;;;21.16;65.62;100901.95;1722197;82;20981;-76
2022/06/27 01:32:08;;;;;;;4.80;4.20;;;;;;;21.15;65.92;100901.72;1712217;82;21007;-73
2022/06/27 01:34:42;;;;;;;5.20;4.43;;;;;;;21.10;65.94;100902.69;1718529;82;21147;-72
2022/06/27 01:37:12;;;;;;;7.53;4.70;;;;;;;21.06;65.86;100905.81;1685634;82;20984;-74
2022/06/27 01:39:41;;;;;;;5.00;4.47;;;;;;;21.04;65.85;100909.40;1717614;82;21210;-73
2022/06/27 01:42:09;;;;;;;6.27;4.70;;;;;;;21.01;65.95;100904.60;1708873;82;21009;-73
2022/06/27 01:44:36;;;;;;;7.73;4.90;;;;;;;21.03;66.15;100903.73;1711060;83;21102;-74
2022/06/27 01:47:08;;;;;;;9.17;4.80;;;;;;;20.97;66.38;100902.29;1679710;82;21497;-74
2022/06/27 01:49:38;;;;;;;6.20;4.80;;;;;;;20.93;66.84;100899.98;1704607;82;21047;-73
2022/06/27 01:52:07;;;;;;;5.93;4.93;;;;;;;20.90;67.16;100908.76;1692715;82;21393;-73
2022/06/27 01:54:39;;;;;;;5.57;4.40;;;;;;;20.87;67.46;100901.25;1704783;82;21070;-73
2022/06/27 01:57:08;;;;;;;6.77;5.20;;;;;;;20.84;68.03;100900.75;1713689;82;22239;-73
2022/06/27 01:59:37;;;;;;;6.50;5.10;;;;;;;20.79;68.54;100900.89;1712984;82;21122;-73
2022/06/27 02:02:05;;;;;;;5.93;4.80;;;;;;;20.76;68.86;100902.09;1703295;82;21065;-73
2022/06/27 02:04:32;;;;;;;5.20;4.63;;;;;;;20.75;69.01;100907.28;1677958;85;21212;-73
2022/06/27 02:07:00;;;;;;;6.03;4.77;;;;;;;20.73;69.01;100899.47;1677685;85;21344;-74
2022/06/27 02:09:27;;;;;;;7.33;4.53;;;;;;;20.75;68.88;100899.93;1652954;84;21087;-73
2022/06/27 02:11:55;;;;;;;5.70;4.77;;;;;;;20.70;68.91;100901.46;1657463;83;21820;-72
2022/06/27 02:14:25;;;;;;;5.67;4.30;;;;;;;20.67;69.05;100898.02;1659989;84;21080;-73
2022/06/27 02:16:54;;;;;;;6.22;5.00;;;;;;;20.67;69.15;100904.80;1684609;82;21050;-73
2022/06/27 02:19:20;;;;;;;5.60;4.93;;;;;;;20.69;69.12;100909.91;1687389;82;21518;-72
2022/06/27 02:21:47;;;;;;;7.07;5.00;;;;;;;20.68;69.15;100905.03;1675067;82;21492;-74
2022/06/27 02:24:16;;;;;;;8.07;4.63;;;;;;;20.70;69.18;100912.88;1693571;82;20985;-73
2022/06/27 02:26:43;;;;;;;6.20;4.93;;;;;;;20.70;69.22;100910.95;1690475;82;21132;-73
2022/06/27 02:29:11;;;;;;;6.13;4.70;;;;;;;20.70;69.24;100914.23;1685791;82;21503;-73
2022/06/27 02:31:49;;;;;;;5.13;4.43;;;;;;;20.71;69.22;100918.54;1685359;82;21085;-73
2022/06/27 02:34:16;;;;;;;7.17;5.00;;;;;;;20.73;69.10;100919.00;1683698;82;20986;-73
2022/06/27 02:36:48;;;;;;;5.90;4.70;;;;;;;20.74;68.91;100917.34;1687853;82;21062;-72
2022/06/27 02:39:19;;;;;;;6.03;4.65;;;;;;;20.77;68.88;100921.35;1690942;82;21057;-72
2022/06/27 02:41:47;;;;;;;5.63;5.03;;;;;;;20.74;68.95;100916.55;1713669;82;22261;-73
2022/06/27 02:44:14;;;;;;;6.10;4.90;;;;;;;20.72;69.11;100920.12;1693520;82;21014;-73
2022/06/27 02:46:41;;;;;;;5.23;4.60;;;;;;;20.75;69.21;100916.22;1683481;82;21077;-73
2022/06/27 02:49:09;;;;;;;7.37;5.67;;;;;;;20.79;69.26;100919.89;1694384;82;20978;-73
2022/06/27 02:51:42;;;;;;;6.97;5.17;;;;;;;20.85;69.22;100927.34;1710082;82;21056;-74
2022/06/27 02:54:18;;;;;;;5.20;4.70;;;;;;;20.92;69.16;100930.94;1722899;83;21891;-73
2022/06/27 02:56:56;;;;;;;5.90;5.20;;;;;;;20.95;69.16;100930.31;1674547;83;21112;-73
2022/06/27 02:59:26;;;;;;;6.87;5.30;;;;;;;20.97;69.07;100928.88;1656246;83;21155;-72
2022/06/27 03:01:53;;;;;;;6.97;5.30;;;;;;;21.03;68.94;100930.89;1669544;84;21040;-71
2022/06/27 03:04:21;;;;;;;6.10;5.30;;;;;;;21.08;68.74;100932.08;1705889;84;21007;-73
2022/06/27 03:06:49;;;;;;;6.13;4.93;;;;;;;21.14;68.61;100924.58;1713054;82;21331;-74
2022/06/27 03:09:17;;;;;;;7.57;5.50;;;;;;;21.22;68.40;100930.56;1704586;82;21103;-73
2022/06/27 03:11:48;;;;;;;6.03;4.60;;;;;;;21.25;68.28;100932.08;1720235;82;21157;-74
2022/06/27 03:14:16;;;;;;;;;;;;;;;21.28;68.10;100932.00;1709226;82;21476;-74
2022/06/27 03:16:43;;;;;;;6.20;5.23;;;;;;;21.34;67.75;100931.30;1688995;82;20189;-73
2022/06/27 03:19:14;;;;;;;7.43;5.33;;;;;;;21.45;67.69;100932.58;1706116;82;21443;-73
2022/06/27 03:21:43;;;;;;;7.00;5.70;;;;;;;21.52;67.54;100930.20;1719789;82;21155;-75
2022/06/27 03:24:10;;;;;;;6.43;5.60;;;;;;;21.55;67.53;100922.73;1705621;82;20991;-74
2022/06/27 03:26:38;;;;;;;6.57;5.40;;;;;;;21.59;67.42;100922.92;1702957;82;21184;-74
2022/06/27 03:29:09;;;;;;;6.20;5.23;;;;;;;21.61;67.32;100924.73;1698160;83;21029;-73
2022/06/27 03:31:37;;;;;;;7.87;5.33;;;;;;;21.59;67.25;100925.07;1718300;82;22184;-74
2022/06/27 03:34:05;;;;;;;5.70;5.00;;;;;;;21.62;67.32;100921.72;1688255;82;21094;-74
2022/06/27 03:36:44;;;;;;;6.47;5.27;;;;;;;21.68;67.31;100929.91;1702956;82;21111;-74
2022/06/27 03:39:11;;;;;;;6.67;4.90;;;;;;;21.76;67.20;100923.67;1724158;83;20972;-74
2022/06/27 03:41:39;;;;;;;5.90;4.80;;;;;;;21.87;67.07;100931.48;1716136;82;22222;-74
2022/06/27 03:44:12;;;;;;;8.57;5.03;;;;;;;21.98;66.91;100929.47;1712029;82;21929;-73
2022/06/27 03:46:38;;;;;;;6.40;4.90;;;;;;;22.11;66.56;100936.36;1709929;82;21050;-74
2022/06/27 03:51:53;;;;;;;6.57;5.43;;;;;;;22.33;65.95;100929.91;1712768;82;21033;-74
2022/06/27 03:54:20;;;;;;;5.57;4.97;;;;;;;22.43;65.61;100925.46;1720919;82;21046;-73
2022/06/27 03:56:46;;;;;;;5.97;4.53;;;;;;;22.54;65.27;100940.85;1708274;82;21538;-73
2022/06/27 03:59:13;;;;;;;6.20;4.70;;;;;;;22.65;64.95;100937.44;1713409;82;20997;-73
2022/06/27 04:01:40;;;;;;;5.80;4.93;;;;;;;22.77;64.61;100932.66;1720632;82;21076;-74
2022/06/27 04:04:06;;;;;;;6.37;5.20;;;;;;;22.84;64.09;100932.13;1719837;82;21582;-74
2022/06/27 04:06:35;;;;;;;7.93;5.80;;;;;;;22.94;63.82;100934.49;1715263;82;21038;-74
2022/06/27 04:09:02;;;;;;;6.87;4.93;;;;;;;22.99;63.60;100930.19;1698805;82;21103;-74
2022/06/27 04:11:30;;;;;;;7.17;5.10;;;;;;;23.09;63.44;100929.80;1700918;82;21264;-73
2022/06/27 04:13:58;;;;;;;6.70;5.20;;;;;;;23.16;62.86;100927.90;1715394;82;21368;-74
2022/06/27 04:16:44;;;;;;;7.63;5.40;;;;;;;23.24;62.48;100931.70;1690289;82;21532;-75
2022/06/27 04:19:19;;;;;;;6.47;5.10;;;;;;;23.31;62.35;100935.48;1679279;82;21441;-74
2022/06/27 04:22:10;;;;;;;7.27;5.10;;;;;;;23.41;61.92;100938.36;1682298;82;21397;-73
2022/06/27 04:24:58;;;;;;;5.80;4.70;;;;;;;23.55;61.55;100932.05;1666145;82;21113;-73
2022/06/27 04:27:30;;;;;;;6.47;4.93;;;;;;;23.67;61.12;100929.14;1678722;82;21129;-74
2022/06/27 04:29:57;;;;;;;7.43;4.50;;;;;;;23.73;61.09;100927.83;1683348;82;21145;-74
2022/06/27 04:32:25;;;;;;;5.93;4.70;;;;;;;23.81;60.78;100931.81;1681907;82;21093;-74
2022/06/27 04:34:52;;;;;;;6.03;5.00;;;;;;;23.87;60.33;100927.74;1697605;82;21154;-74
2022/06/27 04:37:18;;;;;;;7.23;5.30;;;;;;;23.95;60.24;100924.67;1692363;82;21670;-75
2022/06/27 04:40:05;;;;;;;7.20;5.00;;;;;;;24.03;59.77;100925.73;1687282;82;21624;-74
2022/06/27 04:42:32;;;;;;;5.70;4.87;;;;;;;24.11;59.47;100932.44;1682349;82;21558;-74
2022/06/27 04:45:02;;;;;;;7.90;5.07;;;;;;;24.23;59.30;100937.70;1681065;84;21002;-74
2022/06/27 04:47:30;;;;;;;5.20;4.70;;;;;;;24.33;59.15;100938.61;1687341;82;21577;-74
2022/06/27 04:50:05;;;;;;;5.83;4.83;;;;;;;24.47;58.81;100936.35;1672936;85;21153;-72
2022/06/27 04:52:34;;;;;;;7.33;4.80;;;;;;;24.63;58.44;100937.04;1688082;82;21015;-74
2022/06/27 04:55:01;;;;;;;5.50;4.90;;;;;;;24.76;57.91;100935.31;1678742;82;21160;-74
2022/06/27 04:57:28;;;;;;;5.57;4.80;;;;;;;24.89;57.49;100931.98;1677567;85;21019;-74
2022/06/27 04:59:56;;;;;;;5.60;4.20;;;;;;;25.01;57.14;100931.97;1683063;82;21545;-73
2022/06/27 05:02:35;;;;;;;5.57;4.97;;;;;;;25.18;56.66;100942.43;1647222;82;21097;-74
2022/06/27 05:05:04;;;;;;;8.03;4.60;;;;;;;25.32;56.41;100935.99;1679789;82;21062;-73
2022/06/27 05:07:31;;;;;;;5.00;4.47;;;;;;;25.44;55.23;100935.16;1683300;82;20995;-74
2022/06/27 05:09:59;;;;;;;5.80;3.80;;;;;;;25.53;54.50;100933.62;1693149;82;21636;-74
2022/06/27 05:12:27;;;;;;;4.67;4.07;;;;;;;25.60;54.09;100936.00;1692172;82;21136;-73
2022/06/27 05:14:54;;;;;;;4.53;4.10;;;;;;;25.69;53.54;100930.34;1701131;82;20953;-75
2022/06/27 05:17:22;;;;;;;6.83;4.00;;;;;;;25.80;53.10;100934.73;1715004;82;21087;-74
2022/06/27 05:19:48;;;;;;;5.30;3.80;;;;;;;25.93;53.00;100935.72;1706082;82;21063;-75
2022/06/27 05:22:16;;;;;;;5.40;4.07;;;;;;;26.07;52.55;100930.39;1699184;82;21620;-75
2022/06/27 05:24:43;;;;;;;7.80;4.20;;;;;;;26.15;52.07;100933.52;1693908;84;21356;-74
2022/06/27 05:27:09;;;;;;;5.10;3.80;;;;;;;26.21;51.80;100934.84;1711809;82;21072;-74
2022/06/27 05:29:37;;;;;;;4.43;3.77;;;;;;;26.27;51.34;100938.90;1707429;82;21023;-73
2022/06/27 05:32:04;;;;;;;5.07;4.57;;;;;;;26.33;51.15;100940.81;1697557;82;21082;-75
2022/06/27 05:34:33;;;;;;;5.53;4.40;;;;;;;26.43;51.32;100934.20;1705150;82;21042;-74
2022/06/27 05:37:00;;;;;;;7.50;4.37;;;;;;;26.57;50.84;100929.66;1725108;83;21146;-74
2022/06/27 05:39:27;;;;;;;4.87;4.30;;;;;;;26.66;50.08;100929.47;1716134;83;21481;-72
2022/06/27 05:41:54;;;;;;;7.47;4.10;;;;;;;26.69;49.77;100930.68;1705741;84;21455;-74
2022/06/27 05:44:24;;;;;;;4.60;4.17;;;;;;;26.75;50.08;100928.70;1680571;82;21144;-74
2022/06/27 05:46:51;;;;;;;4.57;4.17;;;;;;;26.89;50.48;100933.12;1723325;83;21004;-74
2022/06/27 05:49:40;;;;;;;4.93;4.43;;;;;;;27.01;50.03;100936.87;1685946;83;21107;-74
2022/06/27 05:52:09;;;;;;;5.17;4.50;;;;;;;27.12;49.72;100940.06;1704935;82;21088;-74
2022/06/27 05:54:35;;;;;;;6.83;4.33;;;;;;;27.17;49.68;100945.86;1707840;84;21578;-75
2022/06/27 05:57:05;;;;;;;5.23;4.00;;;;;;;27.25;49.50;100944.86;1708284;84;21083;-71
2022/06/27 05:59:34;;;;;;;7.13;4.30;;;;;;;27.31;49.98;100946.72;1706721;84;21076;-72
2022/06/27 06:02:03;;;;;;;6.17;4.30;;;;;;;27.38;49.49;100952.92;1705861;84;22052;-71
2022/06/27 06:04:32;;;;;;;6.97;4.50;;;;;;;27.42;48.90;100955.19;1705829;84;21276;-71
2022/06/27 06:06:59;;;;;;;5.17;4.20;;;;;;;27.44;49.04;100951.48;1705177;82;21051;-82
2022/06/27 06:09:31;;;;;;;4.70;4.20;;;;;;;27.49;48.80;100949.25;1680110;84;21689;-72
2022/06/27 06:11:59;;;;;;;4.57;4.13;;;;;;;27.56;49.01;100950.75;1705541;84;21044;-72
2022/06/27 06:14:28;;;;;;;4.30;3.87;;;;;;;27.59;48.18;100947.28;1705841;84;21547;-72
2022/06/27 06:16:56;;;;;;;4.93;4.00;;;;;;;27.55;48.03;100949.17;1705976;84;21055;-73
2022/06/27 06:19:23;;;;;;;4.50;4.10;;;;;;;27.49;48.56;100949.83;1706167;84;21028;-72
2022/06/27 06:21:49;;;;;;;4.93;4.40;;;;;;;27.51;48.22;100948.87;1705674;84;21071;-73
2022/06/27 06:24:16;;;;;;;4.53;4.07;;;;;;;27.52;48.13;100950.48;1705919;84;21104;-72
2022/06/27 06:26:45;;;;;;;5.37;4.03;;;;;;;27.55;48.21;100945.64;1706073;84;21154;-73
2022/06/27 06:29:12;;;;;;;5.30;4.20;;;;;;;27.61;48.52;100940.08;1705863;84;21008;-72
2022/06/27 06:31:43;;;;;;;4.57;3.97;;;;;;;27.75;48.26;100934.05;1705829;84;21074;-72
2022/06/27 06:34:13;;;;;;;6.23;4.30;;;;;;;27.85;48.35;100929.94;1706332;84;21052;-71
2022/06/27 06:36:39;;;;;;;6.53;4.70;;;;;;;27.92;47.55;100930.06;1705819;84;21025;-73
2022/06/27 06:39:07;;;;;;;4.93;3.90;;;;;;;27.95;46.96;100926.58;1706002;84;21168;-74
2022/06/27 06:41:35;;;;;;;4.23;3.73;;;;;;;27.94;47.07;100920.30;1705579;84;21053;-73
2022/06/27 06:44:05;;;;;;;5.40;4.57;;;;;;;27.97;47.33;100924.25;1705957;84;21042;-72
2022/06/27 06:46:54;;;;;;;5.73;4.13;;;;;;;27.99;47.30;100933.71;1706221;84;21054;-73
2022/06/27 06:49:23;;;;;;;5.20;4.10;;;;;;;28.12;47.54;100924.71;1696936;84;20979;-73
2022/06/27 06:51:50;;;;;;;5.73;4.33;;;;;;;28.24;47.46;100926.48;1705790;84;21142;-73
2022/06/27 06:54:18;;;;;;;4.53;3.87;;;;;;;28.25;47.30;100924.72;1705921;84;21133;-73
2022/06/27 06:56:46;;;;;;;5.10;4.23;;;;;;;28.22;47.17;100929.58;1705779;84;21054;-73
2022/06/27 06:59:14;;;;;;;4.63;3.93;;;;;;;28.19;47.52;100927.56;1706073;84;21175;-72
2022/06/27 07:01:41;;;;;;;6.67;4.10;;;;;;;28.28;46.82;100930.06;1705474;84;20983;-72
2022/06/27 07:04:08;;;;;;;6.87;4.10;;;;;;;28.42;46.34;100926.77;1705768;84;21906;-72
2022/06/27 07:06:36;;;;;;;6.10;4.30;;;;;;;28.52;46.16;100928.88;1705592;84;21554;-73
2022/06/27 07:09:04;;;;;;;6.33;4.03;;;;;;;28.64;45.95;100925.92;1705783;84;21113;-73
2022/06/27 07:11:32;;;;;;;4.73;3.73;;;;;;;28.80;46.18;100931.84;1705556;84;21015;-72
2022/06/27 07:14:01;;;;;;;6.63;4.10;;;;;;;28.91;45.93;100929.43;1705902;84;21067;-72
2022/06/27 07:16:31;;;;;;;5.50;4.47;;;;;;;29.06;45.68;100931.83;1705561;84;21051;-74
2022/06/27 07:19:00;;;;;;;5.00;4.20;;;;;;;29.20;45.22;100927.86;1679456;84;21022;-73
2022/06/27 07:21:28;;;;;;;4.87;4.20;;;;;;;29.29;45.30;100927.58;1705846;84;21018;-72
2022/06/27 07:23:55;;;;;;;4.00;3.37;;;;;;;29.41;45.57;100934.19;1707289;84;21605;-72
2022/06/27 07:26:23;;;;;;;5.63;3.70;;;;;;;29.50;43.15;100931.14;1706524;84;21046;-72
2022/06/27 07:28:51;;;;;;;5.07;3.93;;;;;;;29.56;43.59;100934.36;1706215;84;21787;-72
2022/06/27 07:31:22;;;;;;;4.70;4.17;;;;;;;29.62;43.50;100928.75;1705645;83;21094;-73
2022/06/27 07:33:51;;;;;;;5.37;4.03;;;;;;;29.67;43.72;100933.31;1705701;84;21514;-72
2022/06/27 07:36:19;;;;;;;7.17;3.87;;;;;;;29.76;43.45;100937.14;1705698;84;21093;-73
2022/06/27 07:38:49;;;;;;;4.30;3.80;;;;;;;29.85;42.72;100932.70;1705705;84;21541;-74
2022/06/27 07:41:19;;;;;;;5.23;3.60;;;;;;;29.90;42.96;100928.21;1705577;84;21277;-73
2022/06/27 07:43:47;;;;;;;4.73;3.07;;;;;;;29.97;43.29;100936.53;1706064;84;21549;-74
2022/06/27 07:46:15;;;;;;;5.97;3.70;;;;;;;30.10;42.49;100936.45;1705657;84;21074;-73
2022/06/27 07:48:42;;;;;;;5.67;3.50;;;;;;;30.24;41.99;100939.14;1705505;84;21163;-73
2022/06/27 07:51:09;;;;;;;4.67;3.53;;;;;;;30.32;41.16;100933.91;1705742;84;21010;-72
2022/06/27 07:53:37;;;;;;;4.57;3.40;;;;;;;30.41;40.98;100940.47;1705748;84;21437;-72
2022/06/27 07:56:06;;;;;;;6.30;3.80;;;;;;;30.49;41.13;100940.70;1705472;84;21067;-73
2022/06/27 07:58:38;;;;;;;4.53;3.50;;;;;;;30.50;41.64;100943.06;1705211;84;21046;-74
2022/06/27 08:01:08;;;;;;;3.90;3.10;;;;;;;30.51;41.19;100941.13;1705758;84;21118;-76
2022/06/27 08:03:46;;;;;;;4.28;3.08;;;;;;;30.52;41.32;100939.35;1705930;84;20947;-73
2022/06/27 08:06:24;;;;;;;5.07;3.07;;;;;;;30.58;41.18;100946.09;1705830;84;21093;-73
2022/06/27 08:08:57;;;;;;;4.50;3.00;;;;;;;30.64;40.32;100942.39;1705663;84;21117;-73
2022/06/27 08:11:27;;;;;;;4.90;3.20;;;;;;;30.71;40.54;100936.13;1705762;84;21114;-75
2022/06/27 08:13:58;;;;;;;6.42;3.35;;;;;;;30.81;40.63;100944.48;1705902;84;21046;-76
2022/06/27 08:16:28;;;;;;;7.12;3.58;;;;;;;30.87;40.74;100938.02;1705721;84;21034;-74
2022/06/27 08:18:55;;;;;;;5.03;3.63;;;;;;;30.93;41.31;100939.23;1680432;84;21257;-75
2022/06/27 08:21:27;;;;;;;4.23;3.50;;;;;;;30.99;39.29;100941.01;1705464;84;21022;-74
2022/06/27 08:23:56;;;;;;;4.03;3.13;;;;;;;30.94;39.30;100938.05;1705708;84;21035;-74
2022/06/27 08:26:23;;;;;;;5.03;3.40;;;;;;;30.96;39.58;100928.78;1705293;84;21464;-74
2022/06/27 08:28:52;;;;;;;4.43;3.13;;;;;;;31.13;40.49;100935.57;1705787;84;21078;-73
2022/06/27 08:31:21;;;;;;;4.30;3.27;;;;;;;31.36;40.00;100934.47;1705528;83;21565;-74
2022/06/27 08:33:51;;;;;;;5.22;3.12;;;;;;;31.53;38.96;100933.16;1705959;84;21200;-75
2022/06/27 08:36:19;;;;;;;4.67;3.50;;;;;;;31.60;37.59;100919.16;1705598;84;21537;-73
2022/06/27 08:38:51;;;;;;;3.90;2.90;;;;;;;31.56;38.04;100929.39;1706009;84;21680;-73
2022/06/27 15:33:18;;;;;;;6.30;3.17;;;;;;;34.65;28.44;100758.52;1709716;82;21108;-75
2022/06/27 15:35:45;;;;;;;3.92;3.15;;;;;;;34.61;28.35;100756.41;1723833;83;21053;-75
2022/06/27 15:38:12;;;;;;;4.97;3.65;;;;;;;34.46;28.54;100757.97;1724721;82;21272;-76
2022/06/27 15:40:40;;;;;;;6.97;3.55;;;;;;;34.24;28.59;100762.20;1721233;81;21030;-76
2022/06/27 15:43:09;;;;;;;4.67;3.30;;;;;;;34.09;29.32;100756.02;1735189;80;21186;-74
2022/06/27 15:45:36;;;;;;;4.03;3.20;;;;;;;33.93;28.59;100763.52;1734924;81;20997;-76
2022/06/27 15:48:08;;;;;;;4.00;2.80;;;;;;;33.72;28.32;100767.88;1734356;81;21088;-76
2022/06/27 15:50:37;;;;;;;3.83;3.20;;;;;;;33.51;28.65;100760.57;1734597;81;21893;-78
2022/06/27 15:53:05;;;;;;;4.12;3.00;;;;;;;33.34;28.37;100763.66;1707082;81;21056;-77
2022/06/27 15:55:31;;;;;;;4.22;2.80;;;;;;;33.23;29.48;100766.48;1731416;81;21543;-75
2022/06/27 15:57:59;;;;;;;3.52;3.10;;;;;;;33.26;30.20;100760.13;1733118;81;21686;-78
2022/06/27 16:00:26;;;;;;;4.33;2.72;;;;;;;33.26;30.20;100760.13;1730012;81;21623;-74
2022/06/27 16:02:52;;;;;;;4.10;3.27;;;;;;;33.33;30.09;100761.48;1732841;81;21162;-74
2022/06/27 16:05:20;;;;;;;4.42;3.55;;;;;;;33.32;30.24;100758.51;1733237;81;21073;-74
2022/06/27 16:07:48;;;;;;;3.95;3.17;;;;;;;33.25;30.33;100759.17;1732181;81;21052;-76
2022/06/27 16:10:16;;;;;;;3.75;2.98;;;;;;;33.14;30.66;100764.80;1731840;81;21123;-75
2022/06/27 16:12:43;;;;;;;4.80;3.12;;;;;;;32.99;31.17;100771.02;1733804;81;21571;-77
2022/06/27 16:15:10;;;;;;;4.28;2.75;;;;;;;32.83;31.39;100765.94;1729469;81;21812;-77
2022/06/27 16:17:37;;;;;;;3.50;2.92;;;;;;;32.69;32.08;100767.41;1731685;81;21572;-76
2022/06/27 16:20:09;;;;;;;4.35;3.37;;;;;;;32.54;31.67;100767.28;1732130;81;21043;-76
2022/06/27 16:22:37;;;;;;;3.92;3.20;;;;;;;32.32;31.67;100767.36;1728012;81;21032;-77
2022/06/27 16:25:04;;;;;;;4.15;3.25;;;;;;;32.20;32.22;100768.58;1734712;81;21602;-77
2022/06/27 16:27:31;;;;;;;5.00;3.17;;;;;;;32.14;32.63;100772.15;1735567;81;21497;-76
2022/06/27 16:29:58;;;;;;;5.83;3.55;;;;;;;31.99;32.84;100766.67;1731641;81;21058;-77
2022/06/27 16:32:24;;;;;;;4.30;3.20;;;;;;;31.84;33.38;100771.99;1490620;81;10000981;-77
2022/06/27 16:34:51;;;;;;;4.80;3.40;;;;;;;31.69;33.31;100767.69;1729627;81;21516;-78
2022/06/27 16:37:19;;;;;;;5.95;3.40;;;;;;;31.57;33.67;100773.02;1731637;82;21078;-76
2022/06/27 16:39:45;;;;;;;6.12;3.70;;;;;;;31.45;34.02;100770.05;1727914;82;21119;-75
2022/06/27 16:44:57;;;;;;;4.20;3.37;;;;;;;31.36;34.63;100777.14;1698938;83;21089;-77
2022/06/27 16:47:30;;;;;;;3.55;3.22;;;;;;;31.30;34.73;100778.91;1732598;82;21062;-76
2022/06/27 16:49:57;;;;;;;4.72;3.30;;;;;;;31.30;34.90;100775.36;1724311;82;21145;-78
2022/06/27 16:52:24;;;;;;;4.97;3.62;;;;;;;31.24;35.13;100776.33;1722390;82;21102;-75
2022/06/27 16:54:51;;;;;;;4.58;3.22;;;;;;;31.18;35.04;100774.35;1712027;82;21105;-76
2022/06/27 16:57:17;;;;;;;5.03;3.27;;;;;;;31.12;35.44;100773.16;1704411;84;21085;-76
2022/06/27 16:59:45;;;;;;;4.27;3.23;;;;;;;31.00;35.51;100770.20;1716513;82;21218;-76
2022/06/27 17:02:13;;;;;;;5.00;3.33;;;;;;;30.90;35.93;100768.19;1691059;82;21056;-78
2022/06/27 17:04:39;;;;;;;4.43;3.10;;;;;;;30.76;36.14;100770.30;1697096;82;21569;-78
2022/06/27 17:07:09;;;;;;;5.70;3.47;;;;;;;30.65;36.46;100770.86;1696824;82;21150;-76
2022/06/27 17:09:35;;;;;;;5.50;3.20;;;;;;;30.55;36.63;100774.56;1698196;82;21630;-76
2022/06/27 17:12:05;;;;;;;3.63;3.10;;;;;;;30.47;36.90;100773.53;1698868;82;21261;-77
2022/06/27 17:14:31;;;;;;;4.37;3.53;;;;;;;30.37;36.97;100776.45;1702091;82;21008;-76
2022/06/27 17:16:58;;;;;;;4.37;3.33;;;;;;;30.27;37.15;100771.67;1700732;82;21065;-76
2022/06/27 17:19:26;;;;;;;5.47;3.30;;;;;;;30.18;37.53;100776.15;1702076;82;21030;-74
2022/06/27 17:21:54;;;;;;;5.50;3.57;;;;;;;30.08;37.76;100778.25;1700801;82;21006;-74
2022/06/27 17:24:22;;;;;;;3.70;3.23;;;;;;;29.96;37.87;100774.44;1699311;82;21747;-75
2022/06/27 17:26:48;;;;;;;4.53;3.40;;;;;;;29.84;38.02;100777.69;1703703;82;21161;-75
2022/06/27 17:29:14;;;;;;;3.90;3.13;;;;;;;29.76;38.17;100780.80;1699230;82;21073;-74
2022/06/27 17:31:43;;;;;;;4.47;3.17;;;;;;;29.67;38.28;100775.61;1703338;82;21065;-75
2022/06/27 17:34:09;;;;;;;5.77;3.30;;;;;;;29.68;38.32;100778.55;1698871;82;21050;-76
2022/06/27 17:36:37;;;;;;;4.80;3.63;;;;;;;29.86;38.41;100780.08;1699798;82;21077;-76
2022/06/27 17:39:04;;;;;;;8.03;4.67;;;;;;;30.12;37.96;100779.06;1700360;82;21131;-76
2022/06/27 17:41:32;;;;;;;5.77;4.27;;;;;;;30.38;37.89;100772.53;1701608;82;20998;-77
2022/06/27 17:44:01;;;;;;;6.97;4.77;;;;;;;30.55;37.40;100771.81;1705989;82;21023;-76
2022/06/27 17:46:27;;;;;;;5.30;4.50;;;;;;;30.63;37.36;100777.34;1702081;82;21093;-76
2022/06/27 17:48:54;;;;;;;6.28;4.70;;;;;;;30.60;36.98;100785.23;1470679;82;10000539;-78
2022/06/27 17:51:20;;;;;;;8.60;4.33;;;;;;;30.51;37.30;100783.42;1704265;83;21196;-75
2022/06/27 17:53:47;;;;;;;5.60;4.40;;;;;;;30.37;37.15;100785.53;1694982;83;21514;-77
2022/06/27 17:56:22;;;;;;;5.20;4.33;;;;;;;30.21;37.25;100785.05;1709793;81;21687;-75
2022/06/27 17:58:50;;;;;;;7.77;4.80;;;;;;;30.03;37.43;100789.63;1710101;82;21106;-75
2022/06/27 18:01:18;;;;;;;6.73;4.60;;;;;;;29.83;37.98;100790.48;1705936;82;21149;-78
2022/06/27 18:03:45;;;;;;;6.37;4.47;;;;;;;29.60;37.98;100785.98;1689420;82;21083;-76
2022/06/27 18:06:12;;;;;;;6.40;4.80;;;;;;;29.37;38.43;100792.24;1719436;82;21351;-77
2022/06/27 18:08:39;;;;;;;7.33;4.87;;;;;;;29.16;39.20;100790.88;1709995;83;21688;-76
2022/06/27 18:11:07;;;;;;;6.13;4.70;;;;;;;28.97;39.91;100792.41;1706574;82;21051;-75
2022/06/27 18:13:38;;;;;;;6.80;4.87;;;;;;;28.78;40.34;100797.50;1709281;81;21027;-76
2022/06/27 18:16:04;;;;;;;5.53;4.53;;;;;;;28.59;40.94;100800.41;1713878;81;21087;-77
2022/06/27 18:18:32;;;;;;;7.07;4.97;;;;;;;28.40;41.42;100802.73;1700948;82;21091;-77
2022/06/27 18:21:03;;;;;;;6.23;4.90;;;;;;;28.21;41.93;100801.66;1709630;83;21199;-76
2022/06/27 18:23:29;;;;;;;5.90;5.30;;;;;;;28.03;42.26;100806.87;1709026;81;21032;-76
2022/06/27 18:25:56;;;;;;;6.60;5.17;;;;;;;27.89;42.81;100805.88;1710328;82;21070;-75
2022/06/27 18:28:23;;;;;;;7.80;6.27;;;;;;;27.72;43.38;100807.95;1712267;82;21054;-76